sensor_id;sensor_type;location;lat;lon;timestamp;temperature;humidity
78289;DHT22;67539;48.752;12.922;2023-12-14T00:02:10;5.80;99.90
78289;DHT22;67539;48.752;12.922;2023-12-14T00:04:40;5.80;99.90
78289;DHT22;67539;48.752;12.922;2023-12-14T00:07:08;5.80;99.90
78289;DHT22;67539;48.752;12.922;2023-12-14T00:09:37;5.80;99.90
78289;DHT22;67539;48.752;12.922;2023-12-14T00:12:07;5.80;99.90
78289;DHT22;67539;48.752;12.922;2023-12-14T00:14:35;5.80;99.90
78289;DHT22;67539;48.752;12.922;2023-12-14T00:17:03;5.80;99.90
78289;DHT22;67539;48.752;12.922;2023-12-14T00:19:32;5.80;99.90
78289;DHT22;67539;48.752;12.922;2023-12-14T00:22:00;5.70;99.90
78289;DHT22;67539;48.752;12.922;2023-12-14T00:24:28;5.70;99.90
78289;DHT22;67539;48.752;12.922;2023-12-14T00:26:56;5.70;99.90
78289;DHT22;67539;48.752;12.922;2023-12-14T00:29:26;5.70;99.90
78289;DHT22;67539;48.752;12.922;2023-12-14T00:31:54;5.70;99.90
78289;DHT22;67539;48.752;12.922;2023-12-14T00:34:22;5.60;99.90
78289;DHT22;67539;48.752;12.922;2023-12-14T00:36:50;5.60;99.90
78289;DHT22;67539;48.752;12.922;2023-12-14T00:39:18;5.60;99.90
78289;DHT22;67539;48.752;12.922;2023-12-14T00:41:46;5.60;99.90
78289;DHT22;67539;48.752;12.922;2023-12-14T00:44:14;5.60;99.90
78289;DHT22;67539;48.752;12.922;2023-12-14T00:46:44;5.70;99.90
78289;DHT22;67539;48.752;12.922;2023-12-14T00:49:12;5.70;99.90
78289;DHT22;67539;48.752;12.922;2023-12-14T00:51:40;5.70;99.90
78289;DHT22;67539;48.752;12.922;2023-12-14T00:54:08;5.70;99.90
78289;DHT22;67539;48.752;12.922;2023-12-14T00:56:36;5.60;99.90
78289;DHT22;67539;48.752;12.922;2023-12-14T00:59:04;5.70;99.90
78289;DHT22;67539;48.752;12.922;2023-12-14T01:01:32;5.60;99.90
78289;DHT22;67539;48.752;12.922;2023-12-14T01:04:03;5.60;99.90
78289;DHT22;67539;48.752;12.922;2023-12-14T01:06:31;5.60;99.90
78289;DHT22;67539;48.752;12.922;2023-12-14T01:08:59;5.60;99.90
78289;DHT22;67539;48.752;12.922;2023-12-14T01:11:27;5.60;99.90
78289;DHT22;67539;48.752;12.922;2023-12-14T01:13:56;5.60;99.90
78289;DHT22;67539;48.752;12.922;2023-12-14T01:16:26;5.60;99.90
78289;DHT22;67539;48.752;12.922;2023-12-14T01:18:54;5.60;99.90
78289;DHT22;67539;48.752;12.922;2023-12-14T01:21:24;5.60;99.90
78289;DHT22;67539;48.752;12.922;2023-12-14T01:23:52;5.60;99.90
78289;DHT22;67539;48.752;12.922;2023-12-14T01:26:20;5.60;99.90
78289;DHT22;67539;48.752;12.922;2023-12-14T01:28:48;5.60;99.90
78289;DHT22;67539;48.752;12.922;2023-12-14T01:31:16;5.70;99.90
78289;DHT22;67539;48.752;12.922;2023-12-14T01:33:44;5.70;99.90
78289;DHT22;67539;48.752;12.922;2023-12-14T01:36:20;5.70;99.90
78289;DHT22;67539;48.752;12.922;2023-12-14T01:38:49;5.80;99.90
78289;DHT22;67539;48.752;12.922;2023-12-14T01:41:18;5.80;99.90
78289;DHT22;67539;48.752;12.922;2023-12-14T01:43:46;5.90;99.90
78289;DHT22;67539;48.752;12.922;2023-12-14T01:46:14;5.90;99.90
78289;DHT22;67539;48.752;12.922;2023-12-14T01:48:43;6.00;99.90
78289;DHT22;67539;48.752;12.922;2023-12-14T01:51:11;6.00;99.90
78289;DHT22;67539;48.752;12.922;2023-12-14T01:53:39;6.00;99.90
78289;DHT22;67539;48.752;12.922;2023-12-14T01:56:09;6.00;99.90
78289;DHT22;67539;48.752;12.922;2023-12-14T01:58:38;6.00;99.90
78289;DHT22;67539;48.752;12.922;2023-12-14T02:01:10;6.00;99.90
78289;DHT22;67539;48.752;12.922;2023-12-14T02:03:44;6.10;99.90
78289;DHT22;67539;48.752;12.922;2023-12-14T02:06:12;6.10;99.90
78289;DHT22;67539;48.752;12.922;2023-12-14T02:08:40;6.10;99.90
78289;DHT22;67539;48.752;12.922;2023-12-14T02:11:11;6.10;99.90
78289;DHT22;67539;48.752;12.922;2023-12-14T02:13:39;6.20;99.90
78289;DHT22;67539;48.752;12.922;2023-12-14T02:16:07;6.20;99.90
78289;DHT22;67539;48.752;12.922;2023-12-14T02:18:36;6.20;99.90
78289;DHT22;67539;48.752;12.922;2023-12-14T02:21:05;6.20;99.90
78289;DHT22;67539;48.752;12.922;2023-12-14T02:23:34;6.20;99.90
78289;DHT22;67539;48.752;12.922;2023-12-14T02:26:02;6.30;99.90
78289;DHT22;67539;48.752;12.922;2023-12-14T02:28:31;6.30;99.90
78289;DHT22;67539;48.752;12.922;2023-12-14T02:30:59;6.30;99.90
78289;DHT22;67539;48.752;12.922;2023-12-14T02:33:27;6.30;99.90
78289;DHT22;67539;48.752;12.922;2023-12-14T02:35:55;6.30;99.90
78289;DHT22;67539;48.752;12.922;2023-12-14T02:38:23;6.30;99.90
78289;DHT22;67539;48.752;12.922;2023-12-14T02:40:53;6.30;99.90
78289;DHT22;67539;48.752;12.922;2023-12-14T02:43:21;6.30;99.90
78289;DHT22;67539;48.752;12.922;2023-12-14T02:45:50;6.30;99.90
78289;DHT22;67539;48.752;12.922;2023-12-14T02:48:18;6.30;99.90
78289;DHT22;67539;48.752;12.922;2023-12-14T02:50:46;6.20;99.90
78289;DHT22;67539;48.752;12.922;2023-12-14T02:53:14;6.20;99.90
78289;DHT22;67539;48.752;12.922;2023-12-14T02:55:43;6.20;99.90
78289;DHT22;67539;48.752;12.922;2023-12-14T02:58:13;6.20;99.90
78289;DHT22;67539;48.752;12.922;2023-12-14T03:00:41;6.20;99.90
78289;DHT22;67539;48.752;12.922;2023-12-14T03:03:09;6.10;99.90
78289;DHT22;67539;48.752;12.922;2023-12-14T03:05:37;6.10;99.90
78289;DHT22;67539;48.752;12.922;2023-12-14T03:08:05;6.00;99.90
78289;DHT22;67539;48.752;12.922;2023-12-14T03:10:34;6.00;99.90
78289;DHT22;67539;48.752;12.922;2023-12-14T03:13:02;6.00;99.90
78289;DHT22;67539;48.752;12.922;2023-12-14T03:15:31;6.00;99.90
78289;DHT22;67539;48.752;12.922;2023-12-14T03:17:59;6.00;99.90
78289;DHT22;67539;48.752;12.922;2023-12-14T03:20:29;6.00;99.90
78289;DHT22;67539;48.752;12.922;2023-12-14T03:22:58;6.00;99.90
78289;DHT22;67539;48.752;12.922;2023-12-14T03:25:26;6.00;99.90
78289;DHT22;67539;48.752;12.922;2023-12-14T03:27:54;6.00;99.90
78289;DHT22;67539;48.752;12.922;2023-12-14T03:30:22;6.00;99.90
78289;DHT22;67539;48.752;12.922;2023-12-14T03:32:52;6.00;99.90
78289;DHT22;67539;48.752;12.922;2023-12-14T03:35:20;5.90;99.90
78289;DHT22;67539;48.752;12.922;2023-12-14T03:37:49;5.90;99.90
78289;DHT22;67539;48.752;12.922;2023-12-14T03:40:17;5.90;99.90
78289;DHT22;67539;48.752;12.922;2023-12-14T03:42:45;5.90;99.90
78289;DHT22;67539;48.752;12.922;2023-12-14T03:45:13;5.80;99.90
78289;DHT22;67539;48.752;12.922;2023-12-14T03:47:41;5.80;99.90
78289;DHT22;67539;48.752;12.922;2023-12-14T03:50:12;5.80;99.90
78289;DHT22;67539;48.752;12.922;2023-12-14T03:52:40;5.80;99.90
78289;DHT22;67539;48.752;12.922;2023-12-14T03:55:09;5.80;99.90
78289;DHT22;67539;48.752;12.922;2023-12-14T03:57:37;5.80;99.90
78289;DHT22;67539;48.752;12.922;2023-12-14T04:00:09;5.80;99.90
78289;DHT22;67539;48.752;12.922;2023-12-14T04:02:37;5.80;99.90
78289;DHT22;67539;48.752;12.922;2023-12-14T04:05:06;5.80;99.90
78289;DHT22;67539;48.752;12.922;2023-12-14T04:07:37;5.80;99.90
78289;DHT22;67539;48.752;12.922;2023-12-14T04:10:08;5.80;99.90
78289;DHT22;67539;48.752;12.922;2023-12-14T04:12:37;5.80;99.90
78289;DHT22;67539;48.752;12.922;2023-12-14T04:15:07;5.80;99.90
78289;DHT22;67539;48.752;12.922;2023-12-14T04:17:36;5.80;99.90
78289;DHT22;67539;48.752;12.922;2023-12-14T04:20:05;5.80;99.90
78289;DHT22;67539;48.752;12.922;2023-12-14T04:22:34;5.80;99.90
78289;DHT22;67539;48.752;12.922;2023-12-14T04:25:05;5.80;99.90
78289;DHT22;67539;48.752;12.922;2023-12-14T04:27:34;5.70;99.90
78289;DHT22;67539;48.752;12.922;2023-12-14T04:30:03;5.70;99.90
78289;DHT22;67539;48.752;12.922;2023-12-14T04:32:32;5.70;99.90
78289;DHT22;67539;48.752;12.922;2023-12-14T04:35:01;5.70;99.90
78289;DHT22;67539;48.752;12.922;2023-12-14T04:37:29;5.80;99.90
78289;DHT22;67539;48.752;12.922;2023-12-14T04:39:58;5.80;99.90
78289;DHT22;67539;48.752;12.922;2023-12-14T04:42:27;5.80;99.90
78289;DHT22;67539;48.752;12.922;2023-12-14T04:44:55;5.80;99.90
78289;DHT22;67539;48.752;12.922;2023-12-14T04:47:23;5.70;99.90
78289;DHT22;67539;48.752;12.922;2023-12-14T04:49:51;5.70;99.90
78289;DHT22;67539;48.752;12.922;2023-12-14T04:52:20;5.70;99.90
78289;DHT22;67539;48.752;12.922;2023-12-14T04:54:48;5.70;99.90
78289;DHT22;67539;48.752;12.922;2023-12-14T04:57:16;5.70;99.90
78289;DHT22;67539;48.752;12.922;2023-12-14T04:59:46;5.70;99.90
78289;DHT22;67539;48.752;12.922;2023-12-14T05:02:14;5.70;99.90
78289;DHT22;67539;48.752;12.922;2023-12-14T05:04:42;5.70;99.90
78289;DHT22;67539;48.752;12.922;2023-12-14T05:07:11;5.70;99.90
78289;DHT22;67539;48.752;12.922;2023-12-14T05:09:39;5.70;99.90
78289;DHT22;67539;48.752;12.922;2023-12-14T05:12:07;5.70;99.90
78289;DHT22;67539;48.752;12.922;2023-12-14T05:14:35;5.70;99.90
78289;DHT22;67539;48.752;12.922;2023-12-14T05:17:04;5.70;99.90
78289;DHT22;67539;48.752;12.922;2023-12-14T05:19:33;5.80;99.90
78289;DHT22;67539;48.752;12.922;2023-12-14T05:22:03;5.70;99.90
78289;DHT22;67539;48.752;12.922;2023-12-14T05:24:32;5.80;99.90
78289;DHT22;67539;48.752;12.922;2023-12-14T05:27:00;5.70;99.90
78289;DHT22;67539;48.752;12.922;2023-12-14T05:29:28;5.80;99.90
78289;DHT22;67539;48.752;12.922;2023-12-14T05:31:56;5.80;99.90
78289;DHT22;67539;48.752;12.922;2023-12-14T05:34:26;5.80;99.90
78289;DHT22;67539;48.752;12.922;2023-12-14T05:36:54;5.80;99.90
78289;DHT22;67539;48.752;12.922;2023-12-14T05:39:22;5.80;99.90
78289;DHT22;67539;48.752;12.922;2023-12-14T05:41:50;5.80;99.90
78289;DHT22;67539;48.752;12.922;2023-12-14T05:44:18;5.80;99.90
78289;DHT22;67539;48.752;12.922;2023-12-14T05:46:46;5.80;99.90
78289;DHT22;67539;48.752;12.922;2023-12-14T05:49:14;5.80;99.90
78289;DHT22;67539;48.752;12.922;2023-12-14T05:51:44;5.80;99.90
78289;DHT22;67539;48.752;12.922;2023-12-14T05:54:12;5.70;99.90
78289;DHT22;67539;48.752;12.922;2023-12-14T05:56:40;5.70;99.90
78289;DHT22;67539;48.752;12.922;2023-12-14T05:59:09;5.80;99.90
78289;DHT22;67539;48.752;12.922;2023-12-14T06:01:37;5.80;99.90
78289;DHT22;67539;48.752;12.922;2023-12-14T06:04:05;5.80;99.90
78289;DHT22;67539;48.752;12.922;2023-12-14T06:06:33;5.70;99.90
78289;DHT22;67539;48.752;12.922;2023-12-14T06:09:03;5.70;99.90
78289;DHT22;67539;48.752;12.922;2023-12-14T06:11:33;5.70;99.90
78289;DHT22;67539;48.752;12.922;2023-12-14T06:14:01;5.80;99.90
78289;DHT22;67539;48.752;12.922;2023-12-14T06:16:29;5.80;99.90
78289;DHT22;67539;48.752;12.922;2023-12-14T06:18:57;5.80;99.90
78289;DHT22;67539;48.752;12.922;2023-12-14T06:21:26;5.70;99.90
78289;DHT22;67539;48.752;12.922;2023-12-14T06:23:55;5.80;99.90
78289;DHT22;67539;48.752;12.922;2023-12-14T06:26:24;5.80;99.90
78289;DHT22;67539;48.752;12.922;2023-12-14T06:28:52;5.80;99.90
78289;DHT22;67539;48.752;12.922;2023-12-14T06:31:21;5.80;99.90
78289;DHT22;67539;48.752;12.922;2023-12-14T06:33:49;5.80;99.90
78289;DHT22;67539;48.752;12.922;2023-12-14T06:36:17;5.80;99.90
78289;DHT22;67539;48.752;12.922;2023-12-14T06:38:46;5.80;99.90
78289;DHT22;67539;48.752;12.922;2023-12-14T06:41:20;5.80;99.90
78289;DHT22;67539;48.752;12.922;2023-12-14T06:43:50;5.80;99.90
78289;DHT22;67539;48.752;12.922;2023-12-14T06:46:19;5.80;99.90
78289;DHT22;67539;48.752;12.922;2023-12-14T06:48:47;5.80;99.90
78289;DHT22;67539;48.752;12.922;2023-12-14T06:51:16;5.80;99.90
78289;DHT22;67539;48.752;12.922;2023-12-14T06:53:44;5.80;99.90
78289;DHT22;67539;48.752;12.922;2023-12-14T06:56:14;5.90;99.90
78289;DHT22;67539;48.752;12.922;2023-12-14T06:58:43;5.90;99.90
78289;DHT22;67539;48.752;12.922;2023-12-14T07:01:14;5.90;99.90
78289;DHT22;67539;48.752;12.922;2023-12-14T07:03:42;5.90;99.90
78289;DHT22;67539;48.752;12.922;2023-12-14T07:06:12;5.80;99.90
78289;DHT22;67539;48.752;12.922;2023-12-14T07:08:41;5.80;99.90
78289;DHT22;67539;48.752;12.922;2023-12-14T07:11:10;5.90;99.90
78289;DHT22;67539;48.752;12.922;2023-12-14T07:13:39;5.90;99.90
78289;DHT22;67539;48.752;12.922;2023-12-14T07:16:09;5.80;99.90
78289;DHT22;67539;48.752;12.922;2023-12-14T07:18:40;5.90;99.90
78289;DHT22;67539;48.752;12.922;2023-12-14T07:21:09;5.90;99.90
78289;DHT22;67539;48.752;12.922;2023-12-14T07:23:37;5.90;99.90
78289;DHT22;67539;48.752;12.922;2023-12-14T07:26:05;5.90;99.90
78289;DHT22;67539;48.752;12.922;2023-12-14T07:28:34;5.90;99.90
78289;DHT22;67539;48.752;12.922;2023-12-14T07:31:03;5.90;99.90
78289;DHT22;67539;48.752;12.922;2023-12-14T07:33:31;5.90;99.90
78289;DHT22;67539;48.752;12.922;2023-12-14T07:36:01;5.90;99.90
78289;DHT22;67539;48.752;12.922;2023-12-14T07:38:29;5.90;99.90
78289;DHT22;67539;48.752;12.922;2023-12-14T07:40:57;5.90;99.90
78289;DHT22;67539;48.752;12.922;2023-12-14T07:43:25;5.90;99.90
78289;DHT22;67539;48.752;12.922;2023-12-14T07:45:53;5.90;99.90
78289;DHT22;67539;48.752;12.922;2023-12-14T07:48:21;5.90;99.90
78289;DHT22;67539;48.752;12.922;2023-12-14T07:50:50;5.90;99.90
78289;DHT22;67539;48.752;12.922;2023-12-14T07:53:20;6.00;99.90
78289;DHT22;67539;48.752;12.922;2023-12-14T07:55:48;6.00;99.90
78289;DHT22;67539;48.752;12.922;2023-12-14T07:58:16;6.00;99.90
78289;DHT22;67539;48.752;12.922;2023-12-14T08:00:44;6.00;99.90
78289;DHT22;67539;48.752;12.922;2023-12-14T08:03:12;6.00;99.90
78289;DHT22;67539;48.752;12.922;2023-12-14T08:05:40;6.00;99.90
78289;DHT22;67539;48.752;12.922;2023-12-14T08:08:09;6.00;99.90
78289;DHT22;67539;48.752;12.922;2023-12-14T08:10:38;6.00;99.90
78289;DHT22;67539;48.752;12.922;2023-12-14T08:13:06;6.00;99.90
78289;DHT22;67539;48.752;12.922;2023-12-14T08:15:34;6.00;99.90
78289;DHT22;67539;48.752;12.922;2023-12-14T08:18:02;6.00;99.90
78289;DHT22;67539;48.752;12.922;2023-12-14T08:20:31;6.00;99.90
78289;DHT22;67539;48.752;12.922;2023-12-14T08:22:59;6.00;99.90
78289;DHT22;67539;48.752;12.922;2023-12-14T08:25:28;6.00;99.90
78289;DHT22;67539;48.752;12.922;2023-12-14T08:27:57;6.10;99.90
78289;DHT22;67539;48.752;12.922;2023-12-14T08:30:28;6.10;99.90
78289;DHT22;67539;48.752;12.922;2023-12-14T08:32:56;6.10;99.90
78289;DHT22;67539;48.752;12.922;2023-12-14T08:35:24;6.10;99.90
78289;DHT22;67539;48.752;12.922;2023-12-14T08:37:52;6.20;99.90
78289;DHT22;67539;48.752;12.922;2023-12-14T08:40:20;6.20;99.90
78289;DHT22;67539;48.752;12.922;2023-12-14T08:42:49;6.20;99.90
78289;DHT22;67539;48.752;12.922;2023-12-14T08:45:18;6.30;99.90
78289;DHT22;67539;48.752;12.922;2023-12-14T08:47:46;6.30;99.90
78289;DHT22;67539;48.752;12.922;2023-12-14T08:50:15;6.30;99.90
78289;DHT22;67539;48.752;12.922;2023-12-14T08:52:44;6.30;99.90
78289;DHT22;67539;48.752;12.922;2023-12-14T08:55:12;6.30;99.90
78289;DHT22;67539;48.752;12.922;2023-12-14T08:57:41;6.30;99.90
78289;DHT22;67539;48.752;12.922;2023-12-14T09:00:10;6.30;99.90
78289;DHT22;67539;48.752;12.922;2023-12-14T09:02:40;6.30;99.90
78289;DHT22;67539;48.752;12.922;2023-12-14T09:05:09;6.30;99.90
78289;DHT22;67539;48.752;12.922;2023-12-14T09:07:40;6.30;99.90
78289;DHT22;67539;48.752;12.922;2023-12-14T09:10:09;6.30;99.90
78289;DHT22;67539;48.752;12.922;2023-12-14T09:12:37;6.30;99.90
78289;DHT22;67539;48.752;12.922;2023-12-14T09:15:06;6.30;99.90
78289;DHT22;67539;48.752;12.922;2023-12-14T09:17:34;6.30;99.90
78289;DHT22;67539;48.752;12.922;2023-12-14T09:20:07;6.30;99.90
78289;DHT22;67539;48.752;12.922;2023-12-14T09:22:35;6.30;99.90
78289;DHT22;67539;48.752;12.922;2023-12-14T09:25:05;6.30;99.90
78289;DHT22;67539;48.752;12.922;2023-12-14T09:27:33;6.40;99.90
78289;DHT22;67539;48.752;12.922;2023-12-14T09:30:02;6.40;99.90
78289;DHT22;67539;48.752;12.922;2023-12-14T09:32:31;6.40;99.90
78289;DHT22;67539;48.752;12.922;2023-12-14T09:34:59;6.40;99.90
78289;DHT22;67539;48.752;12.922;2023-12-14T09:37:29;6.40;99.90
78289;DHT22;67539;48.752;12.922;2023-12-14T09:39:57;6.50;99.90
78289;DHT22;67539;48.752;12.922;2023-12-14T09:42:25;6.50;99.90
78289;DHT22;67539;48.752;12.922;2023-12-14T09:44:54;6.50;99.90
78289;DHT22;67539;48.752;12.922;2023-12-14T09:47:23;6.60;99.90
78289;DHT22;67539;48.752;12.922;2023-12-14T09:49:52;6.60;99.90
78289;DHT22;67539;48.752;12.922;2023-12-14T09:52:20;6.70;99.90
78289;DHT22;67539;48.752;12.922;2023-12-14T09:54:49;6.70;99.90
78289;DHT22;67539;48.752;12.922;2023-12-14T09:57:21;6.80;99.90
78289;DHT22;67539;48.752;12.922;2023-12-14T09:59:51;6.80;99.90
78289;DHT22;67539;48.752;12.922;2023-12-14T10:02:20;6.80;99.90
78289;DHT22;67539;48.752;12.922;2023-12-14T10:04:52;6.70;99.90
78289;DHT22;67539;48.752;12.922;2023-12-14T10:07:21;6.80;99.90
78289;DHT22;67539;48.752;12.922;2023-12-14T10:09:51;6.80;99.90
78289;DHT22;67539;48.752;12.922;2023-12-14T10:12:19;6.80;99.90
78289;DHT22;67539;48.752;12.922;2023-12-14T10:15:00;6.90;99.90
78289;DHT22;67539;48.752;12.922;2023-12-14T10:17:29;6.90;99.90
78289;DHT22;67539;48.752;12.922;2023-12-14T10:20:00;6.80;99.90
78289;DHT22;67539;48.752;12.922;2023-12-14T10:22:31;6.90;99.90
78289;DHT22;67539;48.752;12.922;2023-12-14T10:25:01;6.90;99.90
78289;DHT22;67539;48.752;12.922;2023-12-14T10:27:30;6.90;99.90
78289;DHT22;67539;48.752;12.922;2023-12-14T10:29:59;6.90;99.90
78289;DHT22;67539;48.752;12.922;2023-12-14T10:32:28;6.90;99.90
78289;DHT22;67539;48.752;12.922;2023-12-14T10:34:56;6.90;99.90
78289;DHT22;67539;48.752;12.922;2023-12-14T10:37:25;6.90;99.90
78289;DHT22;67539;48.752;12.922;2023-12-14T10:39:54;6.90;99.90
78289;DHT22;67539;48.752;12.922;2023-12-14T10:42:26;7.00;99.90
78289;DHT22;67539;48.752;12.922;2023-12-14T10:44:56;7.00;99.90
78289;DHT22;67539;48.752;12.922;2023-12-14T10:47:45;7.00;99.90
78289;DHT22;67539;48.752;12.922;2023-12-14T10:50:15;7.00;99.90
78289;DHT22;67539;48.752;12.922;2023-12-14T10:52:44;7.10;99.90
78289;DHT22;67539;48.752;12.922;2023-12-14T10:55:21;7.10;99.90
78289;DHT22;67539;48.752;12.922;2023-12-14T10:57:53;7.10;99.90
78289;DHT22;67539;48.752;12.922;2023-12-14T11:00:21;7.10;99.90
78289;DHT22;67539;48.752;12.922;2023-12-14T11:02:49;7.10;99.90
78289;DHT22;67539;48.752;12.922;2023-12-14T11:05:19;7.10;99.90
78289;DHT22;67539;48.752;12.922;2023-12-14T11:07:54;7.10;99.90
78289;DHT22;67539;48.752;12.922;2023-12-14T11:10:27;7.10;99.90
78289;DHT22;67539;48.752;12.922;2023-12-14T11:12:59;7.10;99.90
78289;DHT22;67539;48.752;12.922;2023-12-14T11:15:28;7.10;99.90
78289;DHT22;67539;48.752;12.922;2023-12-14T11:18:25;7.10;99.90
78289;DHT22;67539;48.752;12.922;2023-12-14T11:20:55;7.10;99.90
78289;DHT22;67539;48.752;12.922;2023-12-14T11:23:32;7.00;99.90
78289;DHT22;67539;48.752;12.922;2023-12-14T11:26:02;7.10;99.90
78289;DHT22;67539;48.752;12.922;2023-12-14T11:28:34;7.10;99.90
78289;DHT22;67539;48.752;12.922;2023-12-14T11:31:04;7.20;99.90
78289;DHT22;67539;48.752;12.922;2023-12-14T11:33:35;7.20;99.90
78289;DHT22;67539;48.752;12.922;2023-12-14T11:36:11;7.20;99.90
78289;DHT22;67539;48.752;12.922;2023-12-14T11:38:41;7.20;99.90
78289;DHT22;67539;48.752;12.922;2023-12-14T11:41:10;7.20;99.90
78289;DHT22;67539;48.752;12.922;2023-12-14T11:43:40;7.20;99.90
78289;DHT22;67539;48.752;12.922;2023-12-14T11:46:09;7.20;99.90
78289;DHT22;67539;48.752;12.922;2023-12-14T11:48:37;7.20;99.90
78289;DHT22;67539;48.752;12.922;2023-12-14T11:51:06;7.20;99.90
78289;DHT22;67539;48.752;12.922;2023-12-14T11:53:35;7.10;99.90
78289;DHT22;67539;48.752;12.922;2023-12-14T11:56:07;7.10;99.90
78289;DHT22;67539;48.752;12.922;2023-12-14T11:58:35;7.00;99.90
78289;DHT22;67539;48.752;12.922;2023-12-14T12:01:13;6.90;99.90
78289;DHT22;67539;48.752;12.922;2023-12-14T12:03:42;6.80;99.90
78289;DHT22;67539;48.752;12.922;2023-12-14T12:06:20;6.80;99.90
78289;DHT22;67539;48.752;12.922;2023-12-14T12:08:48;6.80;99.90
78289;DHT22;67539;48.752;12.922;2023-12-14T12:11:17;6.80;99.90
78289;DHT22;67539;48.752;12.922;2023-12-14T12:13:50;6.80;99.90
78289;DHT22;67539;48.752;12.922;2023-12-14T12:16:20;6.80;99.90
78289;DHT22;67539;48.752;12.922;2023-12-14T12:18:48;6.90;99.90
78289;DHT22;67539;48.752;12.922;2023-12-14T12:21:17;6.90;99.90
78289;DHT22;67539;48.752;12.922;2023-12-14T12:23:45;7.00;99.90
78289;DHT22;67539;48.752;12.922;2023-12-14T12:26:14;7.00;99.90
78289;DHT22;67539;48.752;12.922;2023-12-14T12:28:42;7.10;99.90
78289;DHT22;67539;48.752;12.922;2023-12-14T12:31:11;7.20;99.90
78289;DHT22;67539;48.752;12.922;2023-12-14T12:33:40;7.30;99.90
78289;DHT22;67539;48.752;12.922;2023-12-14T12:36:09;7.40;99.90
78289;DHT22;67539;48.752;12.922;2023-12-14T12:38:37;7.50;99.90
78289;DHT22;67539;48.752;12.922;2023-12-14T12:41:07;7.60;99.90
78289;DHT22;67539;48.752;12.922;2023-12-14T12:43:36;7.70;99.90
78289;DHT22;67539;48.752;12.922;2023-12-14T12:46:04;7.80;99.90
78289;DHT22;67539;48.752;12.922;2023-12-14T12:48:32;7.80;99.90
78289;DHT22;67539;48.752;12.922;2023-12-14T12:51:02;7.70;99.90
78289;DHT22;67539;48.752;12.922;2023-12-14T12:53:30;7.70;99.90
78289;DHT22;67539;48.752;12.922;2023-12-14T12:56:00;7.70;99.90
78289;DHT22;67539;48.752;12.922;2023-12-14T12:58:29;7.70;99.90
78289;DHT22;67539;48.752;12.922;2023-12-14T13:00:57;7.70;99.90
78289;DHT22;67539;48.752;12.922;2023-12-14T13:03:25;7.70;99.90
78289;DHT22;67539;48.752;12.922;2023-12-14T13:05:53;7.70;99.90
78289;DHT22;67539;48.752;12.922;2023-12-14T13:08:23;7.60;99.90
78289;DHT22;67539;48.752;12.922;2023-12-14T13:10:51;7.60;99.90
78289;DHT22;67539;48.752;12.922;2023-12-14T13:13:22;7.60;99.90
78289;DHT22;67539;48.752;12.922;2023-12-14T13:15:50;7.70;99.90
78289;DHT22;67539;48.752;12.922;2023-12-14T13:18:18;7.70;99.90
78289;DHT22;67539;48.752;12.922;2023-12-14T13:20:46;7.80;99.90
78289;DHT22;67539;48.752;12.922;2023-12-14T13:23:14;7.70;99.90
78289;DHT22;67539;48.752;12.922;2023-12-14T13:25:44;7.70;99.90
78289;DHT22;67539;48.752;12.922;2023-12-14T13:28:13;7.70;99.90
78289;DHT22;67539;48.752;12.922;2023-12-14T13:30:44;7.60;99.90
78289;DHT22;67539;48.752;12.922;2023-12-14T13:33:13;7.70;99.90
78289;DHT22;67539;48.752;12.922;2023-12-14T13:35:41;7.70;99.90
78289;DHT22;67539;48.752;12.922;2023-12-14T13:38:10;7.70;99.90
78289;DHT22;67539;48.752;12.922;2023-12-14T13:40:38;7.70;99.90
78289;DHT22;67539;48.752;12.922;2023-12-14T13:43:07;7.70;99.90
78289;DHT22;67539;48.752;12.922;2023-12-14T13:45:38;7.60;99.90
78289;DHT22;67539;48.752;12.922;2023-12-14T13:48:09;7.50;99.90
78289;DHT22;67539;48.752;12.922;2023-12-14T13:50:37;7.40;99.90
78289;DHT22;67539;48.752;12.922;2023-12-14T13:53:05;7.40;99.90
78289;DHT22;67539;48.752;12.922;2023-12-14T13:55:34;7.30;99.90
78289;DHT22;67539;48.752;12.922;2023-12-14T13:58:02;7.20;99.90
78289;DHT22;67539;48.752;12.922;2023-12-14T14:00:32;7.20;99.90
78289;DHT22;67539;48.752;12.922;2023-12-14T14:03:02;7.20;99.90
78289;DHT22;67539;48.752;12.922;2023-12-14T14:05:31;7.20;99.90
78289;DHT22;67539;48.752;12.922;2023-12-14T14:08:00;7.10;99.90
78289;DHT22;67539;48.752;12.922;2023-12-14T14:10:28;7.10;99.90
78289;DHT22;67539;48.752;12.922;2023-12-14T14:12:56;7.10;99.90
78289;DHT22;67539;48.752;12.922;2023-12-14T14:15:24;7.20;99.90
78289;DHT22;67539;48.752;12.922;2023-12-14T14:17:54;7.20;99.90
78289;DHT22;67539;48.752;12.922;2023-12-14T14:20:22;7.20;99.90
78289;DHT22;67539;48.752;12.922;2023-12-14T14:22:51;7.20;99.90
78289;DHT22;67539;48.752;12.922;2023-12-14T14:25:19;7.20;99.90
78289;DHT22;67539;48.752;12.922;2023-12-14T14:27:47;7.20;99.90
78289;DHT22;67539;48.752;12.922;2023-12-14T14:30:16;7.10;99.90
78289;DHT22;67539;48.752;12.922;2023-12-14T14:32:44;7.10;99.90
78289;DHT22;67539;48.752;12.922;2023-12-14T14:35:15;7.10;99.90
78289;DHT22;67539;48.752;12.922;2023-12-14T14:37:43;7.10;99.90
78289;DHT22;67539;48.752;12.922;2023-12-14T14:40:13;7.10;99.90
78289;DHT22;67539;48.752;12.922;2023-12-14T14:42:42;7.10;99.90
78289;DHT22;67539;48.752;12.922;2023-12-14T14:45:11;7.00;99.90
78289;DHT22;67539;48.752;12.922;2023-12-14T14:47:40;7.00;99.90
78289;DHT22;67539;48.752;12.922;2023-12-14T14:50:09;7.00;99.90
78289;DHT22;67539;48.752;12.922;2023-12-14T14:52:39;7.10;99.90
78289;DHT22;67539;48.752;12.922;2023-12-14T14:55:08;7.00;99.90
78289;DHT22;67539;48.752;12.922;2023-12-14T14:57:36;7.00;99.90
78289;DHT22;67539;48.752;12.922;2023-12-14T15:00:05;7.00;99.90
78289;DHT22;67539;48.752;12.922;2023-12-14T15:02:34;7.00;99.90
78289;DHT22;67539;48.752;12.922;2023-12-14T15:05:04;7.00;99.90
78289;DHT22;67539;48.752;12.922;2023-12-14T15:07:32;7.00;99.90
78289;DHT22;67539;48.752;12.922;2023-12-14T15:10:02;7.00;99.90
78289;DHT22;67539;48.752;12.922;2023-12-14T15:12:30;6.90;99.90
78289;DHT22;67539;48.752;12.922;2023-12-14T15:14:58;6.90;99.90
78289;DHT22;67539;48.752;12.922;2023-12-14T15:17:26;6.90;99.90
78289;DHT22;67539;48.752;12.922;2023-12-14T15:19:55;6.90;99.90
78289;DHT22;67539;48.752;12.922;2023-12-14T15:22:23;6.90;99.90
78289;DHT22;67539;48.752;12.922;2023-12-14T15:24:52;6.90;99.90
78289;DHT22;67539;48.752;12.922;2023-12-14T15:27:21;6.80;99.90
78289;DHT22;67539;48.752;12.922;2023-12-14T15:29:49;6.80;99.90
78289;DHT22;67539;48.752;12.922;2023-12-14T15:32:19;6.80;99.90
78289;DHT22;67539;48.752;12.922;2023-12-14T15:34:48;6.80;99.90
78289;DHT22;67539;48.752;12.922;2023-12-14T15:37:17;6.80;99.90
78289;DHT22;67539;48.752;12.922;2023-12-14T15:39:45;6.80;99.90
78289;DHT22;67539;48.752;12.922;2023-12-14T15:42:16;6.80;99.90